createdAt,value
2019-06-08T00:02:22.964Z,81.70
2019-06-08T00:04:52.790Z,81.70
2019-06-08T00:07:23.129Z,82.20
2019-06-08T00:09:52.737Z,81.50
2019-06-08T00:12:23.282Z,82.10
2019-06-08T00:14:52.947Z,81.60
2019-06-08T00:17:35.808Z,81.80
2019-06-08T00:19:53.831Z,82.30
2019-06-08T00:22:23.887Z,82.20
2019-06-08T00:24:53.684Z,82.40
2019-06-08T00:27:24.520Z,82.40
2019-06-08T00:29:54.178Z,82.60
2019-06-08T00:32:24.511Z,82.40
2019-06-08T00:34:54.118Z,82.10
2019-06-08T00:37:24.914Z,82.30
2019-06-08T00:39:56.076Z,82.60
2019-06-08T00:42:25.713Z,82.40
2019-06-08T00:44:55.337Z,82.40
2019-06-08T00:47:24.915Z,83.00
2019-06-08T00:49:54.490Z,82.90
2019-06-08T00:52:25.591Z,83.10
2019-06-08T00:54:55.519Z,83.50
2019-06-08T00:57:26.032Z,83.30
2019-06-08T00:59:55.630Z,82.80
2019-06-08T01:02:26.725Z,82.60
2019-06-08T01:04:56.511Z,82.80
2019-06-08T01:07:26.917Z,82.90
2019-06-08T01:09:56.488Z,83.30
2019-06-08T01:12:26.827Z,82.20
2019-06-08T01:14:56.581Z,82.40
2019-06-08T01:17:27.521Z,83.00
2019-06-08T01:19:57.234Z,83.20
2019-06-08T01:22:27.740Z,82.90
2019-06-08T01:24:57.511Z,82.70
2019-06-08T01:27:28.164Z,82.60
2019-06-08T01:29:59.928Z,82.10
2019-06-08T01:32:30.602Z,82.20
2019-06-08T01:35:00.182Z,82.20
2019-06-08T01:37:31.127Z,82.20
2019-06-08T01:40:00.821Z,82.70
2019-06-08T01:42:31.795Z,82.30
2019-06-08T01:45:03.406Z,82.30
2019-06-08T01:47:33.238Z,82.10
2019-06-08T01:50:02.815Z,82.00
2019-06-08T01:52:33.047Z,82.50
2019-06-08T01:55:04.742Z,82.70
2019-06-08T01:57:34.321Z,83.20
2019-06-08T02:00:29.148Z,82.60
2019-06-08T02:02:38.812Z,82.90
2019-06-08T02:05:08.805Z,81.90
2019-06-08T02:07:38.533Z,82.60
2019-06-08T02:10:09.588Z,82.70
2019-06-08T02:12:41.541Z,82.70
2019-06-08T02:15:11.931Z,83.20
2019-06-08T02:17:41.761Z,82.80
2019-06-08T02:20:12.340Z,82.90
2019-06-08T02:22:41.989Z,83.90
2019-06-08T02:25:12.296Z,83.10
2019-06-08T02:27:41.878Z,83.90
2019-06-08T02:30:15.849Z,83.60
2019-06-08T02:32:45.434Z,83.90
2019-06-08T02:35:15.529Z,83.20
2019-06-08T02:37:45.178Z,83.40
2019-06-08T02:40:16.564Z,83.40
2019-06-08T02:42:46.150Z,83.00
2019-06-08T02:45:17.632Z,83.20
2019-06-08T02:47:47.370Z,82.70
2019-06-08T02:50:18.998Z,82.30
2019-06-08T02:52:52.211Z,82.80
2019-06-08T02:55:24.200Z,82.80
2019-06-08T02:57:54.384Z,83.00
2019-06-08T03:00:24.038Z,83.70
2019-06-08T03:02:55.334Z,84.10
2019-06-08T03:05:25.287Z,84.60
2019-06-08T03:07:56.290Z,85.30
2019-06-08T03:10:27.960Z,84.30
2019-06-08T03:12:58.184Z,81.90
2019-06-08T03:15:34.393Z,81.70
2019-06-08T03:18:05.259Z,81.90
2019-06-08T03:20:35.775Z,78.50
2019-06-08T03:23:05.632Z,78.30
2019-06-08T03:25:47.329Z,78.10
2019-06-08T03:28:06.714Z,78.80
2019-06-08T03:30:41.703Z,77.70
2019-06-08T03:33:07.591Z,77.40
2019-06-08T03:35:46.510Z,76.90
2019-06-08T03:38:08.505Z,76.50
2019-06-08T03:40:38.755Z,77.00
2019-06-08T03:43:10.955Z,76.50
2019-06-08T03:45:40.858Z,75.40
2019-06-08T03:48:11.977Z,74.90
2019-06-08T03:50:42.075Z,75.10
2019-06-08T03:53:12.856Z,74.90
2019-06-08T03:55:45.030Z,74.90
2019-06-08T03:58:14.071Z,74.80
2019-06-08T04:00:44.377Z,75.00
2019-06-08T04:03:14.160Z,75.60
2019-06-08T04:05:44.863Z,76.10
2019-06-08T04:08:15.036Z,76.00
2019-06-08T04:10:46.822Z,75.70
2019-06-08T04:13:15.939Z,76.10
2019-06-08T04:15:46.925Z,75.90
2019-06-08T04:18:16.786Z,76.40
2019-06-08T04:20:48.646Z,75.90
2019-06-08T04:23:17.662Z,76.40
2019-06-08T04:25:47.697Z,76.40
2019-06-08T04:28:17.403Z,76.20
2019-06-08T04:30:49.309Z,76.70
2019-06-08T04:33:19.872Z,76.70
2019-06-08T04:35:50.739Z,76.50
2019-06-08T04:38:20.518Z,77.10
2019-06-08T04:40:50.247Z,77.40
2019-06-08T04:43:19.771Z,77.10
2019-06-08T04:45:49.876Z,76.90
2019-06-08T04:48:19.622Z,77.40
2019-06-08T04:50:49.829Z,77.10
2019-06-08T04:53:19.554Z,77.20
2019-06-08T04:55:50.158Z,77.00
2019-06-08T04:58:19.754Z,77.40
2019-06-08T05:00:50.770Z,77.20
2019-06-08T05:03:20.668Z,77.80
2019-06-08T05:05:50.380Z,77.60
2019-06-08T05:08:19.921Z,77.50
2019-06-08T05:10:49.860Z,77.10
2019-06-08T05:13:19.532Z,76.50
2019-06-08T05:15:50.255Z,76.30
2019-06-08T05:18:20.028Z,75.80
2019-06-08T05:20:51.503Z,76.50
2019-06-08T05:23:20.931Z,76.80
2019-06-08T05:25:50.512Z,76.30
2019-06-08T05:28:21.097Z,76.80
2019-06-08T05:30:50.744Z,76.90
2019-06-08T05:33:20.325Z,76.80
2019-06-08T05:35:49.992Z,77.10
2019-06-08T05:38:19.569Z,76.70
2019-06-08T05:40:49.907Z,76.40
2019-06-08T05:43:20.316Z,76.30
2019-06-08T05:45:50.041Z,75.80
2019-06-08T05:48:19.592Z,75.30
2019-06-08T05:51:00.418Z,74.70
2019-06-08T05:53:20.489Z,74.80
2019-06-08T05:55:50.275Z,74.20
2019-06-08T05:58:19.998Z,74.70
2019-06-08T06:00:50.616Z,74.10
2019-06-08T06:03:20.347Z,73.10
2019-06-08T06:05:50.766Z,71.40
2019-06-08T06:08:20.459Z,69.50
2019-06-08T06:10:51.318Z,69.70
2019-06-08T06:13:21.082Z,69.10
2019-06-08T06:15:51.681Z,69.50
2019-06-08T06:18:21.487Z,69.90
2019-06-08T06:20:51.549Z,69.70
2019-06-08T06:23:21.431Z,69.50
2019-06-08T06:25:51.813Z,69.60
2019-06-08T06:28:21.490Z,69.90
2019-06-08T06:30:52.188Z,69.40
2019-06-08T06:33:21.947Z,70.10
2019-06-08T06:35:52.138Z,71.00
2019-06-08T06:38:21.953Z,70.20
2019-06-08T06:40:52.187Z,70.00
2019-06-08T06:43:22.022Z,70.50
2019-06-08T06:45:52.157Z,70.50
2019-06-08T06:48:23.540Z,71.00
2019-06-08T06:50:53.231Z,71.20
2019-06-08T06:53:22.811Z,71.00
2019-06-08T06:55:53.378Z,70.40
2019-06-08T06:58:23.223Z,70.60
2019-06-08T07:00:53.774Z,70.90
2019-06-08T07:03:23.447Z,71.10
2019-06-08T07:05:54.238Z,71.50
2019-06-08T07:08:23.964Z,71.90
2019-06-08T07:10:55.275Z,71.30
2019-06-08T07:13:25.926Z,71.40
2019-06-08T07:15:58.131Z,71.70
2019-06-08T07:18:26.820Z,71.80
2019-06-08T07:20:56.394Z,71.80
2019-06-08T07:23:25.976Z,72.00
2019-06-08T07:25:55.557Z,72.40
2019-06-08T07:28:25.158Z,71.20
2019-06-08T07:30:54.947Z,70.70
2019-06-08T07:33:24.593Z,70.70
2019-06-08T07:35:55.244Z,70.60
2019-06-08T07:38:24.945Z,71.10
2019-06-08T07:40:58.466Z,70.80
2019-06-08T07:43:25.833Z,70.80
2019-06-08T07:45:56.292Z,70.40
2019-06-08T07:48:25.994Z,70.20
2019-06-08T07:50:56.405Z,70.90
2019-06-08T07:53:26.194Z,70.90
2019-06-08T07:55:56.247Z,71.30
2019-06-08T07:58:25.949Z,69.60
2019-06-08T08:01:00.731Z,69.70
2019-06-08T08:03:26.832Z,68.90
2019-06-08T08:05:56.791Z,69.70
2019-06-08T08:08:26.470Z,69.00
2019-06-08T08:10:57.178Z,69.00
2019-06-08T08:13:26.751Z,68.50
2019-06-08T08:15:58.680Z,67.50
2019-06-08T08:18:27.726Z,67.10
2019-06-08T08:20:59.233Z,67.00
2019-06-08T08:23:28.596Z,67.50
2019-06-08T08:26:01.355Z,66.70
2019-06-08T08:28:29.475Z,66.00
2019-06-08T08:31:01.717Z,66.60
2019-06-08T08:33:30.423Z,67.20
2019-06-08T08:36:01.870Z,67.80
2019-06-08T08:38:31.346Z,68.70
2019-06-08T08:41:07.361Z,68.50
2019-06-08T08:43:32.235Z,68.50
2019-06-08T08:46:02.102Z,68.00
2019-06-08T08:48:33.190Z,68.20
2019-06-08T08:51:03.592Z,68.30
2019-06-08T08:53:33.554Z,68.70
2019-06-08T08:56:03.128Z,67.90
2019-06-08T08:58:32.705Z,67.60
2019-06-08T09:01:03.769Z,67.80
2019-06-08T09:03:33.949Z,68.00
2019-06-08T09:06:04.051Z,67.80
2019-06-08T09:08:33.823Z,68.10
2019-06-08T09:11:04.450Z,67.40
2019-06-08T09:13:34.013Z,66.90
2019-06-08T09:16:04.430Z,67.00
2019-06-08T09:18:34.146Z,66.80
2019-06-08T09:21:04.319Z,66.70
2019-06-08T09:23:34.019Z,65.90
2019-06-08T09:26:08.817Z,66.20
2019-06-08T09:28:34.943Z,65.00
2019-06-08T09:31:04.566Z,64.30
2019-06-08T09:33:34.140Z,64.30
2019-06-08T09:36:04.986Z,64.10
2019-06-08T09:38:34.681Z,63.90
2019-06-08T09:41:05.413Z,64.30
2019-06-08T09:43:38.787Z,64.50
2019-06-08T09:46:09.345Z,65.30
2019-06-08T09:48:41.612Z,64.20
2019-06-08T09:51:11.210Z,63.60
2019-06-08T09:53:41.825Z,62.40
2019-06-08T09:56:11.546Z,63.00
2019-06-08T09:58:41.151Z,61.80
2019-06-08T10:01:12.370Z,62.10
2019-06-08T10:03:42.198Z,62.50
2019-06-08T10:06:12.760Z,62.90
2019-06-08T10:08:42.529Z,62.90
2019-06-08T10:11:12.143Z,63.70
2019-06-08T10:13:43.335Z,66.20
2019-06-08T10:16:13.222Z,63.00
2019-06-08T10:18:42.851Z,62.40
2019-06-08T10:21:12.453Z,62.60
2019-06-08T10:23:42.198Z,63.00
2019-06-08T10:26:12.213Z,61.80
2019-06-08T10:28:41.827Z,61.60
2019-06-08T10:31:11.402Z,61.00
2019-06-08T10:33:41.093Z,61.20
2019-06-08T10:36:12.801Z,61.60
2019-06-08T10:38:42.098Z,61.80
2019-06-08T10:41:17.815Z,62.30
2019-06-08T10:43:43.114Z,63.20
2019-06-08T10:46:17.151Z,63.30
2019-06-08T10:48:44.024Z,63.80
2019-06-08T10:51:13.583Z,65.30
2019-06-08T10:53:49.016Z,63.00
2019-06-08T10:56:14.477Z,64.20
2019-06-08T10:58:44.075Z,61.70
2019-06-08T11:01:15.205Z,63.40
2019-06-08T11:03:44.789Z,61.60
2019-06-08T11:06:14.360Z,59.80
2019-06-08T11:08:43.932Z,59.20
2019-06-08T11:11:14.848Z,59.60
2019-06-08T11:13:50.097Z,60.00
2019-06-08T11:16:18.066Z,59.30
2019-06-08T11:18:50.626Z,58.30
2019-06-08T11:21:20.282Z,59.80
2019-06-08T11:24:05.647Z,59.80
2019-06-08T11:26:24.463Z,61.10
2019-06-08T11:28:52.491Z,61.50
2019-06-08T11:31:22.071Z,61.30
2019-06-08T11:33:52.675Z,62.10
2019-06-08T11:36:22.233Z,59.70
2019-06-08T11:38:51.843Z,60.60
2019-06-08T11:41:22.806Z,59.60
2019-06-08T11:43:52.515Z,60.00
2019-06-08T11:46:22.346Z,60.50
2019-06-08T11:48:52.061Z,58.60
2019-06-08T11:51:21.623Z,59.20
2019-06-08T11:53:52.282Z,58.40
2019-06-08T11:56:23.415Z,59.00
2019-06-08T11:58:57.915Z,57.40
2019-06-08T12:01:27.744Z,56.80
2019-06-08T12:03:57.946Z,56.60
2019-06-08T12:06:27.650Z,55.30
2019-06-08T12:09:00.154Z,54.80
2019-06-08T12:11:28.644Z,55.00
2019-06-08T12:13:58.521Z,54.60
2019-06-08T12:16:28.422Z,53.80
2019-06-08T12:18:58.557Z,54.70
2019-06-08T12:21:28.310Z,54.30
2019-06-08T12:23:57.918Z,54.60
2019-06-08T12:26:27.512Z,55.10
2019-06-08T12:28:58.009Z,54.40
2019-06-08T12:31:29.930Z,52.90
2019-06-08T12:34:00.576Z,53.10
2019-06-08T12:36:30.762Z,53.00
2019-06-08T12:39:00.418Z,53.80
2019-06-08T12:41:31.528Z,55.20
2019-06-08T12:44:01.180Z,55.30
2019-06-08T12:46:30.752Z,54.20
2019-06-08T12:49:00.345Z,53.70
2019-06-08T12:51:29.923Z,53.50
2019-06-08T12:54:00.280Z,52.90
2019-06-08T12:56:30.061Z,53.50
2019-06-08T12:58:59.725Z,52.00
2019-06-08T13:01:29.301Z,52.90
2019-06-08T13:03:58.881Z,51.90
2019-06-08T13:06:28.506Z,52.30
2019-06-08T13:08:58.090Z,53.60
2019-06-08T13:11:28.226Z,54.30
2019-06-08T13:13:59.026Z,55.50
2019-06-08T13:16:30.410Z,53.00
2019-06-08T13:18:59.977Z,51.40
2019-06-08T13:21:35.075Z,51.80
2019-06-08T13:24:02.093Z,51.40
2019-06-08T13:26:31.722Z,51.40
2019-06-08T13:29:01.292Z,49.70
2019-06-08T13:31:30.892Z,47.10
2019-06-08T13:34:00.482Z,45.20
2019-06-08T13:36:30.071Z,43.40
2019-06-08T13:38:59.647Z,43.00
2019-06-08T13:41:30.053Z,44.00
2019-06-08T13:43:59.720Z,47.00
2019-06-08T13:46:29.305Z,50.00
2019-06-08T13:48:58.892Z,51.90
2019-06-08T13:51:29.172Z,52.70
2019-06-08T13:53:58.841Z,53.10
2019-06-08T13:56:29.835Z,53.60
2019-06-08T13:58:59.421Z,53.90
2019-06-08T14:01:30.745Z,51.40
2019-06-08T14:04:00.564Z,50.80
2019-06-08T14:06:30.152Z,50.30
2019-06-08T14:08:59.920Z,51.00
2019-06-08T14:11:29.488Z,51.00
2019-06-08T14:14:01.351Z,52.90
2019-06-08T14:16:30.397Z,54.00
2019-06-08T14:18:59.985Z,54.40
2019-06-08T14:21:38.655Z,54.90
2019-06-08T14:24:00.897Z,50.60
2019-06-08T14:26:30.513Z,46.40
2019-06-08T14:29:01.523Z,44.20
2019-06-08T14:31:32.148Z,47.50
2019-06-08T14:34:01.913Z,48.10
2019-06-08T14:36:31.494Z,49.80
2019-06-08T14:39:02.404Z,50.90
2019-06-08T14:41:32.269Z,50.00
2019-06-08T14:44:01.859Z,51.00
2019-06-08T14:46:31.441Z,51.00
2019-06-08T14:49:01.059Z,49.60
2019-06-08T14:51:49.199Z,50.90
2019-06-08T14:54:26.268Z,51.40
2019-06-08T14:56:52.473Z,48.40
2019-06-08T14:59:23.780Z,46.80
2019-06-08T15:01:53.551Z,45.60
2019-06-08T15:04:26.664Z,44.90
2019-06-08T15:06:54.430Z,47.30
2019-06-08T15:09:24.032Z,49.80
2019-06-08T15:11:53.598Z,52.20
2019-06-08T19:04:41.552Z,61.80
2019-06-08T19:07:11.018Z,61.60
2019-06-08T19:09:42.621Z,60.50
2019-06-08T19:12:13.340Z,60.40
2019-06-08T19:14:43.554Z,60.30
2019-06-08T19:17:13.169Z,60.40
2019-06-08T19:19:47.225Z,60.60
2019-06-08T19:22:15.667Z,61.00
2019-06-08T19:24:49.150Z,60.60
2019-06-08T19:27:18.379Z,61.30
2019-06-08T19:29:51.383Z,61.50
2019-06-08T19:32:20.326Z,62.10
2019-06-08T19:34:53.898Z,62.10
2019-06-08T19:37:21.211Z,62.50
2019-06-08T19:39:50.797Z,62.30
2019-06-08T19:42:35.271Z,62.70
2019-06-08T19:45:01.117Z,62.30
2019-06-08T19:47:23.035Z,62.50
2019-06-08T19:49:54.791Z,63.00
2019-06-08T19:52:23.995Z,63.30
2019-06-08T19:54:54.143Z,63.30
2019-06-08T19:57:23.822Z,63.40
2019-06-08T19:59:53.400Z,64.00
2019-06-08T20:02:22.979Z,64.80
2019-06-08T20:04:53.269Z,65.30
2019-06-08T20:07:23.204Z,65.80
2019-06-08T20:09:53.939Z,65.90
2019-06-08T20:12:23.641Z,65.70
2019-06-08T20:14:53.813Z,66.00
2019-06-08T20:17:23.391Z,65.90
2019-06-08T20:19:53.417Z,66.10
2019-06-08T20:22:23.119Z,66.20
2019-06-08T20:24:55.759Z,66.10
2019-06-08T20:27:24.845Z,66.20
2019-06-08T20:29:54.519Z,66.60
2019-06-08T20:32:24.147Z,66.70
2019-06-08T20:34:53.847Z,69.30
2019-06-08T20:37:23.384Z,70.80
2019-06-08T20:40:04.212Z,71.00
2019-06-08T20:42:24.261Z,71.00
2019-06-08T20:44:53.841Z,71.30
2019-06-08T20:47:23.427Z,71.20
2019-06-08T20:49:53.478Z,71.80
2019-06-08T20:52:23.133Z,72.20
2019-06-08T20:54:53.527Z,72.50
2019-06-08T20:57:23.165Z,72.40
2019-06-08T20:59:53.998Z,72.90
2019-06-08T21:02:24.079Z,72.90
2019-06-08T21:04:54.903Z,73.50
2019-06-08T21:07:24.980Z,74.30
2019-06-08T21:09:57.541Z,74.30
2019-06-08T21:12:28.167Z,74.20
2019-06-08T21:14:57.323Z,74.20
2019-06-08T21:17:27.528Z,74.50
2019-06-08T21:19:57.911Z,74.10
2019-06-08T21:22:27.886Z,74.20
2019-06-08T21:24:59.887Z,74.10
2019-06-08T21:27:29.009Z,74.30
2019-06-08T21:30:06.775Z,74.40
2019-06-08T21:32:29.959Z,74.70
2019-06-08T21:35:00.394Z,74.20
2019-06-08T21:37:30.019Z,74.40
2019-06-08T21:40:03.814Z,74.50
2019-06-08T21:42:31.050Z,74.60
2019-06-08T21:45:02.194Z,74.50
2019-06-08T21:47:32.073Z,74.40
2019-06-08T21:50:01.651Z,74.20
2019-06-08T21:52:31.244Z,74.20
2019-06-08T21:55:00.829Z,74.20
2019-06-08T21:57:30.424Z,74.10
2019-06-08T22:00:21.991Z,74.30
2019-06-08T22:02:31.322Z,74.70
2019-06-08T22:05:03.272Z,74.30
2019-06-08T22:07:32.234Z,74.30
2019-06-08T22:10:02.931Z,75.40
2019-06-08T22:12:32.517Z,76.10
2019-06-08T22:15:03.086Z,76.50
2019-06-08T22:17:32.765Z,75.90
2019-06-08T22:20:03.434Z,75.90
2019-06-08T22:22:34.526Z,75.60
2019-06-08T22:25:08.273Z,75.70
2019-06-08T22:27:38.194Z,76.20
2019-06-08T22:30:13.411Z,76.60
2019-06-08T22:32:39.877Z,76.60
2019-06-08T22:35:09.609Z,76.80
2019-06-08T22:37:39.179Z,76.70
2019-06-08T22:40:09.557Z,76.70
2019-06-08T22:42:39.165Z,76.20
2019-06-08T22:45:10.050Z,76.50
2019-06-08T22:47:39.638Z,76.50
2019-06-08T22:50:10.132Z,76.50
2019-06-08T22:52:40.836Z,76.40
2019-06-08T22:55:11.238Z,77.00
2019-06-08T22:57:40.899Z,78.70
2019-06-08T23:00:17.277Z,79.60
2019-06-08T23:02:44.709Z,79.90
2019-06-08T23:05:14.505Z,80.20
2019-06-08T23:07:44.121Z,80.30
2019-06-08T23:10:14.111Z,80.50
2019-06-08T23:12:43.706Z,80.50
2019-06-08T23:15:15.110Z,80.80
2019-06-08T23:17:44.685Z,81.80
2019-06-08T23:20:14.487Z,81.80
2019-06-08T23:22:44.071Z,81.80
2019-06-08T23:25:32.992Z,81.40
2019-06-08T23:28:03.272Z,81.20
2019-06-08T23:30:34.105Z,81.40
2019-06-08T23:33:04.684Z,81.20
2019-06-08T23:35:47.935Z,81.30
2019-06-08T23:38:08.092Z,80.10
2019-06-08T23:40:37.951Z,81.60
2019-06-08T23:43:08.251Z,81.60
2019-06-08T23:45:38.211Z,81.00
2019-06-08T23:48:08.750Z,81.90
2019-06-08T23:50:38.413Z,83.20
2019-06-08T23:53:10.750Z,83.50
2019-06-08T23:55:39.373Z,84.40
2019-06-08T23:58:11.168Z,85.30
